Time;durP1;ratioP1;P1;durP2;ratioP2;P2;SDS_P1;SDS_P2;PMS_P1;PMS_P2;Temp;Humidity;BMP_temperature;BMP_pressure;BME280_temperature;BME280_humidity;BME280_pressure;Samples;Min_cycle;Max_cycle;Signal;HPM_P1;HPM_P2
2021/11/07 00:03:54;;;;;;;27.87;16.07;;;7.20;85.90;;;;;;4891367;29;20529;-41
2021/11/07 00:06:26;;;;;;;20.30;14.23;;;7.20;85.90;;;;;;4892821;29;20464;-41
2021/11/07 00:08:58;;;;;;;21.83;13.63;;;7.20;85.90;;;;;;4888242;29;20468;-41
2021/11/07 00:13:53;;;;;;;21.30;14.10;;;7.10;86.30;;;;;;4892572;29;20505;-41
2021/11/07 00:16:25;;;;;;;24.57;16.00;;;7.10;86.20;;;;;;4889978;29;21009;-41
2021/11/07 00:19:25;;;;;;;29.90;16.53;;;7.10;86.20;;;;;;4894376;29;20923;-41
2021/11/07 00:24:20;;;;;;;23.20;15.00;;;7.10;86.60;;;;;;4892500;29;20569;-40
2021/11/07 00:26:53;;;;;;;23.13;14.47;;;7.20;86.20;;;;;;4893845;29;20556;-41
2021/11/07 00:29:30;;;;;;;27.07;16.80;;;7.10;86.50;;;;;;4894462;29;20466;-40
2021/11/07 00:32:21;;;;;;;;;;;;;;;;;;;;;
2021/11/07 00:40:14;;;;;;;23.10;16.27;;;7.00;87.10;;;;;;4894571;29;20450;-40
2021/11/07 00:42:49;;;;;;;25.13;14.23;;;7.10;87.20;;;;;;4892569;29;20468;-40
2021/11/07 00:48:35;;;;;;;22.80;14.93;;;7.10;86.80;;;;;;4894323;29;20446;-40
2021/11/07 00:50:58;;;;;;;21.43;14.47;;;7.10;86.90;;;;;;4887369;29;20572;-40
2021/11/07 00:56:08;;;;;;;22.70;14.70;;;7.10;86.70;;;;;;4889616;29;21147;-40
2021/11/07 00:58:39;;;;;;;20.37;13.40;;;7.10;86.70;;;;;;4891297;29;20497;-40
2021/11/07 01:01:11;;;;;;;24.83;15.70;;;7.10;86.60;;;;;;4891793;29;20474;-40
2021/11/07 01:03:38;;;;;;;22.20;13.13;;;7.10;86.70;;;;;;4888176;29;20493;-40
2021/11/07 01:06:05;;;;;;;21.30;13.37;;;7.10;86.70;;;;;;4888556;29;20475;-40
2021/11/07 01:08:32;;;;;;;26.40;14.63;;;7.10;86.30;;;;;;4890899;29;20491;-40
2021/11/07 01:11:00;;;;;;;26.83;14.00;;;7.10;86.50;;;;;;4876865;29;20984;-40
2021/11/07 01:13:28;;;;;;;24.93;13.23;;;7.10;86.70;;;;;;4889903;29;20477;-40
2021/11/07 01:15:55;;;;;;;24.10;13.53;;;7.10;86.70;;;;;;4875704;29;20465;-40
2021/11/07 01:18:23;;;;;;;24.73;15.00;;;7.10;86.70;;;;;;4893088;29;20592;-40
2021/11/07 01:20:50;;;;;;;18.93;12.37;;;7.10;86.90;;;;;;4891933;29;21035;-41
2021/11/07 01:23:24;;;;;;;21.27;12.20;;;7.10;86.90;;;;;;4888415;29;21054;-40
2021/11/07 01:25:57;;;;;;;18.53;12.50;;;7.10;86.80;;;;;;4892151;29;20461;-40
2021/11/07 01:28:25;;;;;;;21.00;13.97;;;7.10;86.70;;;;;;4889983;29;21232;-41
2021/11/07 01:30:54;;;;;;;20.33;12.23;;;7.10;86.80;;;;;;4890009;29;20624;-40
2021/11/07 01:33:24;;;;;;;19.20;12.97;;;7.10;86.80;;;;;;4890910;29;20470;-40
2021/11/07 01:39:34;;;;;;;20.13;12.27;;;7.20;86.60;;;;;;4878386;29;20493;-40
2021/11/07 01:41:43;;;;;;;20.37;12.90;;;7.10;86.70;;;;;;4885926;29;20481;-41
2021/11/07 01:44:11;;;;;;;23.70;13.33;;;7.20;86.70;;;;;;4891900;29;20500;-40
2021/11/07 01:46:43;;;;;;;19.23;12.70;;;7.10;86.60;;;;;;4889697;29;20548;-40
2021/11/07 01:49:12;;;;;;;19.93;12.33;;;7.10;86.50;;;;;;4892224;29;20470;-40
2021/11/07 01:51:52;;;;;;;21.50;12.03;;;7.10;86.50;;;;;;4890384;29;20521;-40
2021/11/07 01:54:26;;;;;;;22.43;13.47;;;7.20;86.50;;;;;;4892023;29;20484;-40
2021/11/07 01:56:54;;;;;;;20.50;12.57;;;7.20;86.40;;;;;;4880284;29;20911;-40
2021/11/07 01:59:21;;;;;;;17.47;12.43;;;7.20;86.40;;;;;;4892209;29;20461;-41
2021/11/07 02:01:53;;;;;;;19.50;12.20;;;7.20;86.30;;;;;;4892485;29;20457;-40
2021/11/07 02:04:21;;;;;;;21.03;12.80;;;7.20;86.20;;;;;;4890405;29;20454;-40
2021/11/07 02:06:48;;;;;;;16.40;11.50;;;7.20;86.20;;;;;;4892106;29;20529;-40
2021/11/07 02:09:16;;;;;;;19.40;11.70;;;7.20;86.20;;;;;;4891610;29;22080;-40
2021/11/07 02:11:43;;;;;;;20.50;12.43;;;7.20;86.00;;;;;;4892891;29;20564;-41
2021/11/07 02:14:10;;;;;;;18.87;11.73;;;7.20;85.90;;;;;;4874343;29;20465;-41
2021/11/07 02:16:39;;;;;;;18.30;11.57;;;7.20;86.00;;;;;;4884918;29;20969;-40
2021/11/07 02:19:06;;;;;;;19.57;11.20;;;7.20;85.90;;;;;;4890046;29;20465;-40
2021/11/07 02:21:33;;;;;;;17.80;11.97;;;7.20;85.80;;;;;;4889998;29;20996;-40
2021/11/07 02:24:01;;;;;;;20.00;12.33;;;7.20;85.60;;;;;;4889766;29;20466;-40
2021/11/07 02:26:28;;;;;;;21.87;13.67;;;7.20;85.40;;;;;;4876945;29;20465;-40
2021/11/07 02:28:55;;;;;;;14.20;11.63;;;7.20;85.40;;;;;;4889775;29;20470;-40
2021/11/07 02:31:22;;;;;;;19.30;12.03;;;7.20;85.50;;;;;;4892157;29;20465;-40
2021/11/07 02:33:48;;;;;;;18.70;11.13;;;7.20;85.50;;;;;;4891911;29;20476;-40
2021/11/07 02:36:17;;;;;;;17.20;11.23;;;7.10;85.50;;;;;;4891391;29;20978;-40
2021/11/07 02:38:46;;;;;;;19.10;13.00;;;7.10;85.50;;;;;;4891294;29;20490;-40
2021/11/07 02:41:13;;;;;;;19.27;12.63;;;7.20;85.30;;;;;;4872019;29;20465;-40
2021/11/07 02:43:49;;;;;;;19.17;12.63;;;7.10;85.40;;;;;;4890734;29;20492;-40
2021/11/07 02:46:17;;;;;;;16.43;11.27;;;7.20;85.30;;;;;;4891661;29;20848;-40
2021/11/07 02:48:53;;;;;;;17.47;11.97;;;7.10;85.40;;;;;;4889548;29;20508;-40
2021/11/07 02:51:35;;;;;;;18.60;12.47;;;7.10;85.50;;;;;;4890039;29;20469;-40
2021/11/07 02:54:05;;;;;;;16.70;11.93;;;7.10;85.50;;;;;;4876120;29;20835;-40
2021/11/07 02:56:33;;;;;;;20.23;13.10;;;7.10;85.00;;;;;;4889437;29;20605;-40
2021/11/07 02:59:00;;;;;;;16.53;12.90;;;7.10;85.30;;;;;;4890562;29;20509;-40
2021/11/07 03:01:28;;;;;;;19.50;13.07;;;7.10;85.10;;;;;;4891968;29;20462;-40
2021/11/07 03:04:06;;;;;;;21.03;13.17;;;7.10;84.50;;;;;;4889435;29;20462;-40
2021/11/07 03:06:34;;;;;;;19.07;12.57;;;7.10;85.00;;;;;;4874016;29;20743;-40
2021/11/07 03:09:04;;;;;;;20.97;14.30;;;7.10;85.00;;;;;;4874323;29;20533;-40
2021/11/07 03:11:39;;;;;;;28.77;18.60;;;7.10;85.00;;;;;;4892159;29;20541;-40
2021/11/07 03:14:06;;;;;;;18.00;11.97;;;7.10;85.10;;;;;;4889926;29;20473;-40
2021/11/07 03:16:33;;;;;;;19.23;12.23;;;7.10;84.60;;;;;;4890522;29;20924;-40
2021/11/07 03:19:01;;;;;;;19.97;11.80;;;7.00;84.50;;;;;;4892413;29;20489;-40
2021/11/07 03:21:27;;;;;;;22.13;14.37;;;6.90;84.80;;;;;;4890542;29;20984;-40
2021/11/07 03:23:57;;;;;;;20.83;12.93;;;6.90;84.90;;;;;;4893263;29;20470;-42
2021/11/07 03:26:26;;;;;;;22.03;12.73;;;6.90;85.10;;;;;;4891700;29;20461;-42
2021/11/07 03:28:59;;;;;;;23.43;12.53;;;6.90;85.10;;;;;;4888209;29;20477;-44
2021/11/07 03:34:00;;;;;;;19.00;12.30;;;6.80;85.60;;;;;;4891438;29;20470;-43
2021/11/07 03:36:32;;;;;;;19.67;12.53;;;6.80;85.90;;;;;;4890878;29;20556;-43
2021/11/07 03:38:59;;;;;;;19.13;12.90;;;6.80;85.80;;;;;;4895292;29;20485;-43
2021/11/07 03:41:26;;;;;;;23.33;14.77;;;6.80;85.90;;;;;;4894117;29;20470;-43
2021/11/07 03:43:53;;;;;;;22.60;15.00;;;6.80;86.10;;;;;;4881666;29;20473;-43
2021/11/07 03:46:19;;;;;;;19.63;11.97;;;6.80;86.20;;;;;;4893475;29;20476;-43
2021/11/07 03:48:46;;;;;;;27.37;14.40;;;6.90;85.80;;;;;;4880281;29;20879;-43
2021/11/07 03:51:15;;;;;;;22.40;14.10;;;6.90;86.10;;;;;;4894721;29;20965;-44
2021/11/07 03:53:41;;;;;;;21.17;14.80;;;6.90;86.40;;;;;;4895426;29;21075;-43
2021/11/07 03:56:08;;;;;;;23.80;13.40;;;6.90;86.00;;;;;;4892992;29;20545;-43
2021/11/07 03:58:35;;;;;;;21.50;14.53;;;7.00;85.90;;;;;;4875150;29;20503;-44
2021/11/07 04:01:03;;;;;;;22.63;13.93;;;7.00;85.50;;;;;;4892111;29;20474;-44
2021/11/07 04:03:30;;;;;;;19.73;14.13;;;7.00;85.60;;;;;;4893776;29;20840;-44
2021/11/07 04:05:57;;;;;;;22.50;14.27;;;7.00;85.60;;;;;;4892969;29;20469;-43
2021/11/07 04:08:24;;;;;;;22.10;14.27;;;7.00;85.70;;;;;;4892894;29;20850;-43
2021/11/07 04:10:51;;;;;;;23.27;14.13;;;7.00;85.60;;;;;;4892004;29;20602;-43
2021/11/07 04:13:19;;;;;;;22.40;13.50;;;7.00;85.80;;;;;;4894161;29;20466;-43
2021/11/07 04:15:45;;;;;;;21.83;14.60;;;7.00;85.80;;;;;;4881209;29;20484;-43
2021/11/07 04:18:12;;;;;;;21.10;13.77;;;7.00;85.90;;;;;;4879108;29;20861;-43
2021/11/07 04:20:39;;;;;;;23.07;14.90;;;7.00;85.70;;;;;;4893236;29;20449;-43
2021/11/07 04:23:06;;;;;;;23.13;15.50;;;7.00;86.10;;;;;;4893133;29;20497;-43
2021/11/07 04:25:33;;;;;;;23.33;15.80;;;7.00;85.70;;;;;;4894781;29;20709;-43
2021/11/07 04:28:01;;;;;;;22.70;14.70;;;7.00;85.80;;;;;;4876314;29;20472;-43
2021/11/07 04:30:28;;;;;;;24.70;14.37;;;7.00;86.40;;;;;;4892874;29;20472;-43
2021/11/07 04:32:55;;;;;;;24.03;14.40;;;7.00;86.40;;;;;;4894471;29;20560;-43
2021/11/07 04:35:22;;;;;;;20.70;13.47;;;7.00;86.60;;;;;;4894542;29;20469;-43
2021/11/07 04:37:49;;;;;;;23.10;14.30;;;7.10;86.40;;;;;;4893832;29;21161;-43
2021/11/07 04:40:16;;;;;;;18.33;13.13;;;7.10;86.20;;;;;;4893324;29;22535;-43
2021/11/07 04:42:44;;;;;;;21.80;14.50;;;7.20;86.20;;;;;;4893392;29;20460;-43
2021/11/07 04:45:11;;;;;;;24.10;15.90;;;7.10;86.50;;;;;;4889645;29;20489;-43
2021/11/07 04:47:38;;;;;;;19.70;15.00;;;7.10;86.80;;;;;;4894180;29;20465;-43
2021/11/07 04:50:07;;;;;;;22.30;14.67;;;7.10;86.90;;;;;;4891542;29;20835;-43
2021/11/07 04:52:34;;;;;;;19.07;14.07;;;7.20;86.80;;;;;;4892269;29;20480;-43
2021/11/07 04:55:01;;;;;;;17.33;13.63;;;7.20;86.70;;;;;;4893449;29;20460;-42
2021/11/07 04:57:28;;;;;;;20.63;12.90;;;7.30;86.50;;;;;;4887334;29;20553;-42
2021/11/07 04:59:58;;;;;;;21.40;13.37;;;7.30;86.40;;;;;;4859925;29;20776;-43
2021/11/07 05:02:25;;;;;;;17.77;12.50;;;7.30;86.00;;;;;;4893449;29;21043;-43
2021/11/07 05:04:56;;;;;;;17.27;13.07;;;7.30;86.50;;;;;;4893340;29;20545;-43
2021/11/07 05:07:22;;;;;;;17.13;12.33;;;7.30;86.40;;;;;;4892586;29;20592;-43
2021/11/07 05:09:49;;;;;;;17.00;12.57;;;7.40;85.70;;;;;;4892837;29;20471;-43
2021/11/07 05:12:16;;;;;;;19.03;14.00;;;7.30;86.00;;;;;;4891141;29;20888;-43
2021/11/07 05:14:43;;;;;;;18.30;12.70;;;7.40;86.00;;;;;;4892995;29;20466;-43
2021/11/07 05:17:10;;;;;;;18.00;12.60;;;7.30;86.10;;;;;;4893205;29;20457;-43
2021/11/07 05:19:36;;;;;;;17.53;12.90;;;7.30;86.30;;;;;;4893356;29;20992;-43
2021/11/07 05:22:04;;;;;;;16.67;11.10;;;7.30;86.70;;;;;;4893174;29;20968;-43
2021/11/07 05:24:31;;;;;;;17.40;11.87;;;7.30;86.60;;;;;;4891883;29;20480;-43
2021/11/07 05:26:59;;;;;;;15.80;10.80;;;7.30;86.50;;;;;;4873698;29;20465;-43
2021/11/07 05:29:26;;;;;;;19.50;11.97;;;7.40;86.70;;;;;;4876487;29;21004;-43
2021/11/07 05:31:53;;;;;;;16.13;11.73;;;7.40;86.50;;;;;;4892218;29;20460;-43
2021/11/07 05:34:20;;;;;;;27.40;12.97;;;7.50;85.70;;;;;;4893124;29;20473;-43
2021/11/07 05:36:47;;;;;;;14.93;10.70;;;7.50;85.60;;;;;;4892089;29;20837;-43
2021/11/07 05:39:14;;;;;;;15.50;11.10;;;7.40;86.10;;;;;;4891437;29;20494;-43
2021/11/07 05:41:41;;;;;;;18.30;11.57;;;7.50;85.90;;;;;;4874421;29;20974;-43
2021/11/07 05:44:08;;;;;;;16.00;11.23;;;7.50;85.70;;;;;;4892259;29;20469;-43
2021/11/07 05:46:35;;;;;;;14.17;10.87;;;7.50;85.80;;;;;;4892418;29;20848;-43
2021/11/07 05:49:03;;;;;;;13.90;10.60;;;7.50;86.10;;;;;;4893479;29;20453;-43
2021/11/07 05:51:31;;;;;;;13.37;10.63;;;7.50;86.00;;;;;;4891236;29;20477;-43
2021/11/07 05:53:58;;;;;;;19.80;12.97;;;7.50;86.10;;;;;;4876172;29;20977;-43
2021/11/07 05:56:25;;;;;;;19.23;13.90;;;7.50;86.20;;;;;;4890217;29;20494;-42
2021/11/07 05:58:52;;;;;;;18.50;12.00;;;7.50;86.50;;;;;;4889427;29;20505;-43
2021/11/07 06:01:19;;;;;;;17.80;11.30;;;7.50;85.90;;;;;;4887764;29;20548;-43
2021/11/07 06:03:46;;;;;;;18.10;11.17;;;7.50;86.20;;;;;;4891213;29;20485;-43
2021/11/07 06:06:13;;;;;;;14.60;10.50;;;7.50;86.50;;;;;;4875992;29;20565;-43
2021/11/07 06:08:39;;;;;;;17.40;10.97;;;7.50;86.60;;;;;;4875239;29;20557;-43
2021/11/07 06:11:06;;;;;;;15.30;10.20;;;7.50;86.50;;;;;;4890931;29;20469;-43
2021/11/07 06:13:34;;;;;;;13.60;10.10;;;7.60;86.30;;;;;;4872527;29;20502;-43
2021/11/07 06:16:02;;;;;;;15.13;9.90;;;7.60;86.30;;;;;;4872224;29;20498;-43
2021/11/07 06:18:30;;;;;;;13.53;10.90;;;7.60;86.10;;;;;;4893274;29;20985;-43
2021/11/07 06:20:58;;;;;;;15.30;10.83;;;7.60;86.10;;;;;;4889967;29;20497;-43
2021/11/07 06:23:25;;;;;;;15.30;9.37;;;7.70;86.00;;;;;;4892620;29;20844;-43
2021/11/07 06:25:52;;;;;;;14.67;9.27;;;7.70;86.00;;;;;;4890146;29;20466;-43
2021/11/07 06:28:20;;;;;;;15.40;9.73;;;7.70;85.40;;;;;;4889632;29;20474;-43
2021/11/07 06:30:48;;;;;;;17.00;9.97;;;7.70;85.40;;;;;;4891884;29;20470;-43
2021/11/07 06:33:16;;;;;;;14.30;9.87;;;7.70;85.70;;;;;;4892782;29;21005;-43
2021/11/07 06:35:43;;;;;;;16.40;10.00;;;7.70;85.70;;;;;;4890500;29;20833;-43
2021/11/07 06:38:10;;;;;;;11.93;8.73;;;7.70;85.10;;;;;;4880315;29;21035;-43
2021/11/07 06:40:39;;;;;;;11.20;9.27;;;7.80;84.90;;;;;;4902160;29;22411;-43
2021/11/07 06:43:07;;;;;;;13.07;9.20;;;7.80;85.00;;;;;;4890548;29;20476;-43
2021/11/07 06:45:36;;;;;;;17.43;10.13;;;7.80;84.90;;;;;;4887881;29;20522;-43
2021/11/07 06:48:03;;;;;;;14.73;9.67;;;7.80;85.30;;;;;;4891801;29;20545;-43
2021/11/07 06:50:31;;;;;;;12.70;8.73;;;7.80;85.30;;;;;;4872426;29;20508;-43
2021/11/07 06:52:57;;;;;;;12.93;8.63;;;7.80;85.30;;;;;;4873564;29;20465;-43
2021/11/07 06:55:25;;;;;;;23.03;15.80;;;7.80;85.40;;;;;;4890180;29;20501;-44
2021/11/07 06:57:51;;;;;;;20.63;12.60;;;7.80;85.20;;;;;;4891679;29;20462;-43
2021/11/07 07:00:22;;;;;;;15.30;10.27;;;7.80;85.00;;;;;;4890960;29;21056;-43
2021/11/07 07:02:49;;;;;;;13.80;10.13;;;7.80;85.20;;;;;;4872508;29;21180;-43
2021/11/07 07:05:18;;;;;;;14.00;9.50;;;7.80;85.40;;;;;;4874830;29;21033;-42
2021/11/07 07:07:52;;;;;;;14.60;10.17;;;7.80;85.60;;;;;;4889261;29;20556;-42
2021/11/07 07:10:33;;;;;;;12.40;10.00;;;7.80;85.70;;;;;;4889632;29;20549;-42
2021/11/07 07:13:07;;;;;;;14.93;10.93;;;7.80;85.10;;;;;;4877148;29;20466;-42
2021/11/07 07:15:41;;;;;;;15.73;9.83;;;7.80;85.70;;;;;;4893302;29;20475;-43
2021/11/07 07:18:17;;;;;;;16.90;11.03;;;7.80;85.90;;;;;;4895474;29;20965;-43
2021/11/07 07:24:05;;;;;;;15.50;10.37;;;7.80;85.80;;;;;;4893947;29;20496;-43
2021/11/07 07:26:48;;;;;;;13.50;10.63;;;7.80;85.90;;;;;;4885403;29;21019;-44
2021/11/07 07:34:24;;;;;;;16.40;10.77;;;7.90;85.50;;;;;;4894994;29;20541;-44
2021/11/07 07:36:53;;;;;;;15.77;11.27;;;7.90;85.30;;;;;;4876772;29;20985;-44
2021/11/07 07:39:21;;;;;;;14.30;9.70;;;7.80;86.00;;;;;;4892683;29;20502;-43
2021/11/07 07:41:48;;;;;;;16.40;10.30;;;7.80;86.10;;;;;;4878351;29;20995;-43
2021/11/07 07:44:15;;;;;;;13.30;10.23;;;7.80;86.10;;;;;;4892536;29;20466;-43
2021/11/07 07:46:44;;;;;;;16.23;10.40;;;7.80;86.20;;;;;;4877951;29;20462;-43
2021/11/07 07:49:13;;;;;;;15.57;10.67;;;7.90;86.00;;;;;;4878486;29;20469;-43
2021/11/07 07:51:40;;;;;;;17.83;10.40;;;7.90;85.90;;;;;;4895755;29;20464;-43
2021/11/07 07:54:08;;;;;;;17.83;11.40;;;8.00;85.70;;;;;;4891590;29;20466;-43
2021/11/07 07:56:35;;;;;;;15.87;10.10;;;8.00;85.70;;;;;;4891159;29;20493;-42
2021/11/07 07:59:06;;;;;;;14.57;10.37;;;8.00;85.60;;;;;;4876981;29;20871;-43
2021/11/07 08:01:34;;;;;;;15.70;10.20;;;8.00;85.60;;;;;;4893531;29;20973;-43
2021/11/07 08:04:01;;;;;;;17.47;11.40;;;8.00;85.80;;;;;;4883254;29;20442;-44
2021/11/07 08:06:28;;;;;;;13.07;9.57;;;8.00;86.00;;;;;;4893913;29;20474;-43
2021/11/07 08:08:55;;;;;;;13.33;9.53;;;8.10;86.00;;;;;;4888086;29;20473;-43
2021/11/07 08:11:22;;;;;;;14.87;10.87;;;8.00;85.80;;;;;;4899248;29;20469;-42
2021/11/07 08:13:51;;;;;;;14.80;10.73;;;8.10;86.10;;;;;;4902094;29;20472;-42
2021/11/07 08:16:22;;;;;;;16.83;10.00;;;8.00;86.50;;;;;;4903223;29;20461;-42
2021/11/07 08:18:49;;;;;;;16.97;10.40;;;8.10;86.60;;;;;;4903598;29;20501;-42
2021/11/07 08:21:17;;;;;;;13.87;9.97;;;8.20;86.50;;;;;;4899497;29;20462;-43
2021/11/07 08:23:48;;;;;;;18.47;9.20;;;8.20;86.60;;;;;;4900028;29;20496;-43
2021/11/07 08:26:16;;;;;;;13.53;9.10;;;8.20;86.40;;;;;;4884562;29;20458;-43
2021/11/07 08:28:44;;;;;;;12.53;8.83;;;8.20;86.90;;;;;;4885133;29;20476;-43
2021/11/07 08:31:19;;;;;;;12.50;8.47;;;8.20;87.00;;;;;;4900631;29;20465;-42
2021/11/07 08:33:48;;;;;;;11.40;8.57;;;8.20;87.00;;;;;;4901772;29;20479;-43
2021/11/07 08:36:20;;;;;;;8.20;7.27;;;8.20;86.90;;;;;;4896242;29;20830;-40
2021/11/07 08:38:53;;;;;;;10.93;8.53;;;8.30;87.10;;;;;;4894204;29;21020;-42
2021/11/07 08:41:21;;;;;;;12.00;7.50;;;8.30;86.50;;;;;;4896704;29;20461;-44
2021/11/07 09:01:12;;;;;;;8.07;6.07;;;8.40;86.20;;;;;;4888759;29;20477;-41
2021/11/07 09:08:49;;;;;;;6.13;4.90;;;8.40;85.40;;;;;;4899918;29;20496;-43
2021/11/07 09:11:18;;;;;;;5.90;5.13;;;8.40;85.60;;;;;;4879906;29;20841;-41
2021/11/07 09:13:46;;;;;;;11.00;5.73;;;8.40;85.20;;;;;;4887830;29;20965;-41
2021/11/07 09:16:14;;;;;;;5.70;4.77;;;8.40;85.30;;;;;;4889984;29;20856;-42
2021/11/07 09:18:43;;;;;;;5.40;4.90;;;8.50;85.60;;;;;;4891750;29;20462;-43
2021/11/07 09:21:20;;;;;;;12.00;6.40;;;8.50;85.30;;;;;;4900352;29;20470;-43
2021/11/07 09:23:51;;;;;;;5.53;5.00;;;8.50;84.90;;;;;;4900082;29;20983;-43
2021/11/07 09:26:32;;;;;;;;;;;;;;;;;;;;;
2021/11/07 09:36:21;;;;;;;5.30;4.80;;;8.50;85.30;;;;;;4889010;29;20457;-41
2021/11/07 09:39:07;;;;;;;6.20;4.90;;;8.60;84.90;;;;;;4874061;29;20466;-41
2021/11/07 09:44:15;;;;;;;6.50;4.70;;;8.60;84.40;;;;;;4889022;29;20469;-41
2021/11/07 09:46:49;;;;;;;4.50;4.10;;;8.60;84.50;;;;;;4888287;29;20462;-41
2021/11/07 09:49:28;;;;;;;4.23;3.93;;;8.60;84.40;;;;;;4886619;29;20469;-40
2021/11/07 09:52:10;;;;;;;5.43;4.43;;;8.70;84.10;;;;;;4886406;29;20461;-40
2021/11/07 09:54:46;;;;;;;4.00;3.60;;;8.80;84.10;;;;;;4871402;29;20555;-41
2021/11/07 09:57:20;;;;;;;5.60;3.10;;;8.80;83.70;;;;;;4897701;29;20568;-42
2021/11/07 09:59:55;;;;;;;3.90;3.53;;;8.80;83.70;;;;;;4894514;29;20504;-42
2021/11/07 10:02:23;;;;;;;3.47;3.23;;;8.90;83.90;;;;;;4893060;29;21118;-40
2021/11/07 10:04:51;;;;;;;6.70;3.87;;;8.90;84.00;;;;;;4889395;29;20482;-40
2021/11/07 10:07:22;;;;;;;2.97;2.67;;;8.90;84.30;;;;;;4887219;29;20481;-40
2021/11/07 10:09:55;;;;;;;3.83;3.53;;;9.00;83.90;;;;;;4888319;29;20472;-40
2021/11/07 10:15:02;;;;;;;3.70;3.40;;;9.10;83.70;;;;;;4887534;29;20465;-40
2021/11/07 10:17:54;;;;;;;4.60;4.20;;;9.10;83.70;;;;;;4888874;29;20493;-40
2021/11/07 10:20:27;;;;;;;3.30;2.80;;;9.20;83.80;;;;;;4886683;29;20504;-40
2021/11/07 10:23:08;;;;;;;3.30;3.00;;;9.30;83.50;;;;;;4891862;29;20484;-40
2021/11/07 10:25:38;;;;;;;3.57;3.27;;;9.30;83.00;;;;;;4891586;29;20469;-40
2021/11/07 10:28:13;;;;;;;3.40;3.10;;;9.30;82.70;;;;;;4889511;29;20916;-40
2021/11/07 10:30:45;;;;;;;2.53;2.43;;;9.30;82.90;;;;;;4889693;29;20465;-40
2021/11/07 10:33:32;;;;;;;3.40;3.20;;;9.30;82.90;;;;;;4887323;29;20839;-40
2021/11/07 10:39:30;;;;;;;3.27;3.07;;;9.30;82.90;;;;;;4876842;29;20474;-40
2021/11/07 10:47:50;;;;;;;3.00;2.80;;;9.40;82.40;;;;;;4885612;29;20473;-41
2021/11/07 10:53:14;;;;;;;3.30;2.83;;;9.50;82.50;;;;;;4888325;29;20470;-41
2021/11/07 10:55:47;;;;;;;2.33;2.13;;;9.50;82.40;;;;;;4890383;29;20481;-41
2021/11/07 10:58:14;;;;;;;2.53;2.27;;;9.50;82.50;;;;;;4874165;29;20833;-41
2021/11/07 11:00:43;;;;;;;2.50;2.30;;;9.50;82.70;;;;;;4891356;29;20493;-41
2021/11/07 11:03:16;;;;;;;2.30;2.10;;;9.50;82.60;;;;;;4891700;29;20468;-41
2021/11/07 11:06:04;;;;;;;2.90;2.60;;;9.60;82.20;;;;;;4889598;29;20465;-41
2021/11/07 11:08:37;;;;;;;2.30;2.10;;;9.60;82.10;;;;;;4891583;29;20477;-41
2021/11/07 11:24:34;;;;;;;4.40;3.43;;;10.00;81.20;;;;;;4895703;29;20465;-44
2021/11/07 11:35:12;;;;;;;2.70;2.50;;;10.20;80.90;;;;;;4887555;29;20453;-43
2021/11/07 11:40:23;;;;;;;3.33;3.10;;;10.20;81.10;;;;;;4885395;29;20977;-43
2021/11/07 11:45:26;;;;;;;2.83;2.63;;;10.10;80.70;;;;;;4887500;29;20497;-44
2021/11/07 11:48:23;;;;;;;3.37;3.07;;;10.00;81.10;;;;;;4872116;29;20454;-44
2021/11/07 11:51:22;;;;;;;5.30;2.57;;;10.00;81.10;;;;;;4887478;29;20466;-43
2021/11/07 11:54:20;;;;;;;3.07;2.70;;;9.90;81.50;;;;;;4885396;29;20454;-43
2021/11/07 11:57:22;;;;;;;3.33;2.90;;;9.80;81.90;;;;;;4886575;29;20864;-43
2021/11/07 11:59:59;;;;;;;3.37;3.07;;;9.80;82.20;;;;;;4889956;29;20489;-43
2021/11/07 12:02:43;;;;;;;2.40;2.20;;;9.80;82.10;;;;;;4889276;29;20501;-43
2021/11/07 12:05:25;;;;;;;3.07;2.87;;;9.80;82.50;;;;;;4890615;29;20465;-43
2021/11/07 12:08:19;;;;;;;3.10;2.90;;;9.80;82.30;;;;;;4894000;29;20477;-43
2021/11/07 12:13:39;;;;;;;3.13;2.67;;;9.90;82.30;;;;;;4882937;29;20949;-43
2021/11/07 12:16:23;;;;;;;4.23;3.83;;;9.90;82.60;;;;;;4902073;29;20487;-42
2021/11/07 12:19:09;;;;;;;3.13;2.90;;;10.00;82.20;;;;;;4885642;29;20999;-42
2021/11/07 12:21:50;;;;;;;2.53;2.33;;;10.00;82.40;;;;;;4887130;29;20493;-43
2021/11/07 12:24:33;;;;;;;3.00;2.80;;;10.00;82.40;;;;;;4883711;29;20984;-42
2021/11/07 12:27:21;;;;;;;3.20;2.90;;;10.00;82.00;;;;;;4902176;29;20600;-43
2021/11/07 12:29:52;;;;;;;2.47;2.27;;;10.00;81.70;;;;;;4902830;29;20461;-43
2021/11/07 12:32:22;;;;;;;2.70;2.60;;;10.00;81.70;;;;;;4897287;29;20476;-42
2021/11/07 12:35:17;;;;;;;3.20;2.90;;;10.00;82.00;;;;;;4901786;29;20462;-43
2021/11/07 12:40:50;;;;;;;2.73;2.53;;;10.10;82.00;;;;;;4898607;29;20490;-43
2021/11/07 12:43:38;;;;;;;2.50;2.30;;;10.10;82.10;;;;;;4903556;29;20533;-43
2021/11/07 12:46:43;;;;;;;2.50;2.30;;;10.00;81.90;;;;;;4901064;29;20821;-43
2021/11/07 12:49:16;;;;;;;2.97;2.77;;;10.00;82.30;;;;;;4872429;29;20961;-43
2021/11/07 12:52:05;;;;;;;2.50;2.30;;;10.00;82.50;;;;;;4902622;29;20443;-43
2021/11/07 12:54:40;;;;;;;4.43;3.20;;;10.00;82.40;;;;;;4897586;29;20477;-43
2021/11/07 12:57:16;;;;;;;3.60;3.27;;;10.00;82.40;;;;;;4875087;29;20484;-43
2021/11/07 12:59:52;;;;;;;3.47;3.17;;;10.00;83.00;;;;;;4891205;29;20555;-43
2021/11/07 13:02:19;;;;;;;2.70;2.50;;;10.00;82.60;;;;;;4892829;29;20856;-43
2021/11/07 13:05:17;;;;;;;2.40;2.20;;;10.10;82.50;;;;;;4890996;29;20462;-43
2021/11/07 13:07:53;;;;;;;2.57;2.40;;;10.10;82.60;;;;;;4887292;29;20474;-43
2021/11/07 13:10:26;;;;;;;3.87;3.40;;;10.10;82.40;;;;;;4887537;29;20477;-43
2021/11/07 13:13:01;;;;;;;4.83;4.20;;;10.10;82.20;;;;;;4876539;29;20823;-42
2021/11/07 13:29:26;;;;;;;3.60;3.30;;;10.10;83.10;;;;;;4892855;29;20466;-43
2021/11/07 13:34:55;;;;;;;3.87;3.47;;;10.10;83.10;;;;;;4891701;29;20564;-43
2021/11/07 13:37:24;;;;;;;3.60;2.97;;;10.00;83.20;;;;;;4890680;29;20470;-43
2021/11/07 13:39:51;;;;;;;3.30;3.10;;;10.10;83.40;;;;;;4861498;29;20842;-44
2021/11/07 13:42:18;;;;;;;4.63;3.33;;;10.10;83.60;;;;;;4874754;29;20450;-44
2021/11/07 13:44:58;;;;;;;3.53;3.23;;;10.10;83.50;;;;;;4890055;29;20841;-43
2021/11/07 13:47:37;;;;;;;4.40;4.00;;;10.10;83.50;;;;;;4889319;29;20730;-43
2021/11/07 13:50:11;;;;;;;2.77;2.57;;;10.20;83.30;;;;;;4857430;29;20457;-43
2021/11/07 13:52:42;;;;;;;3.00;2.80;;;10.20;83.20;;;;;;4891001;29;20477;-43
2021/11/07 13:55:25;;;;;;;3.47;3.27;;;10.20;83.60;;;;;;4876657;29;20482;-43
2021/11/07 13:57:53;;;;;;;3.43;3.23;;;10.20;83.50;;;;;;4876264;29;20462;-41
2021/11/07 14:00:26;;;;;;;3.27;2.90;;;10.30;83.50;;;;;;4874304;29;20500;-41
2021/11/07 14:02:55;;;;;;;2.53;2.43;;;10.30;83.10;;;;;;4875675;29;20472;-41
2021/11/07 14:05:22;;;;;;;3.90;3.23;;;10.30;82.50;;;;;;4890153;29;20461;-41
2021/11/07 14:07:57;;;;;;;3.00;2.80;;;10.30;82.50;;;;;;4889844;29;22370;-41
2021/11/07 14:10:28;;;;;;;3.07;2.43;;;10.30;82.70;;;;;;4890605;29;20469;-41
2021/11/07 14:12:56;;;;;;;2.50;2.30;;;10.30;82.70;;;;;;4892712;29;20480;-41
2021/11/07 14:15:30;;;;;;;3.23;2.93;;;10.20;82.80;;;;;;4892400;29;20468;-41
2021/11/07 14:18:16;;;;;;;2.33;2.10;;;10.20;82.90;;;;;;4890154;29;20482;-41
2021/11/07 14:20:52;;;;;;;2.97;2.00;;;10.20;83.10;;;;;;4871665;29;20540;-41
2021/11/07 14:26:15;;;;;;;2.30;2.10;;;10.20;83.10;;;;;;4890312;29;20468;-40
2021/11/07 14:29:02;;;;;;;3.83;2.43;;;10.20;83.00;;;;;;4890380;29;20458;-41
2021/11/07 14:31:35;;;;;;;3.00;2.80;;;10.20;83.00;;;;;;4891885;29;20458;-41
2021/11/07 14:34:11;;;;;;;3.10;2.57;;;10.20;83.10;;;;;;4892135;29;20461;-41
2021/11/07 14:36:48;;;;;;;3.40;3.10;;;10.20;83.40;;;;;;4890323;29;21016;-40
2021/11/07 14:48:09;;;;;;;4.20;3.80;;;10.20;84.00;;;;;;4875806;29;20472;-41
2021/11/07 14:53:12;;;;;;;3.77;3.30;;;10.20;83.70;;;;;;4891732;29;20860;-41
2021/11/07 14:56:24;;;;;;;3.30;3.00;;;10.20;83.70;;;;;;4885830;29;20933;-41
2021/11/07 14:59:08;;;;;;;4.47;4.07;;;10.20;83.70;;;;;;4887686;29;20475;-41
2021/11/07 15:04:20;;;;;;;5.17;3.40;;;10.20;84.00;;;;;;4885094;29;20469;-41
2021/11/07 15:10:08;;;;;;;4.23;3.80;;;10.20;84.00;;;;;;4888502;29;21068;-41
2021/11/07 15:15:48;;;;;;;4.63;3.70;;;10.20;84.30;;;;;;4847850;29;22536;-41
2021/11/07 15:23:45;;;;;;;4.77;4.37;;;10.10;84.30;;;;;;4861838;29;20991;-41
2021/11/07 15:26:21;;;;;;;5.37;4.87;;;10.00;84.50;;;;;;4872558;29;21085;-41
2021/11/07 15:29:02;;;;;;;5.90;5.30;;;10.00;84.80;;;;;;4881100;29;20606;-41
2021/11/07 15:31:32;;;;;;;4.57;4.17;;;10.00;84.70;;;;;;4886770;29;20992;-41
2021/11/07 15:34:07;;;;;;;4.03;3.73;;;10.00;84.60;;;;;;4887198;29;20469;-41
2021/11/07 15:36:42;;;;;;;3.53;3.23;;;10.00;84.60;;;;;;4887563;29;21110;-41
2021/11/07 15:39:19;;;;;;;4.40;3.60;;;10.00;84.60;;;;;;4890878;29;20982;-41
2021/11/07 15:42:11;;;;;;;3.87;3.50;;;9.90;84.60;;;;;;4889348;29;20585;-41
2021/11/07 15:44:47;;;;;;;3.33;3.03;;;9.90;84.90;;;;;;4874719;29;20560;-40
2021/11/07 15:47:18;;;;;;;4.37;4.00;;;9.90;84.80;;;;;;4895446;29;20889;-41